Time;durP1;ratioP1;P1;durP2;ratioP2;P2;SDS_P1;SDS_P2;PMS_P1;PMS_P2;Temp;Humidity;BMP_temperature;BMP_pressure;BME280_temperature;BME280_humidity;BME280_pressure;Samples;Min_cycle;Max_cycle;Signal;HPM_P1;HPM_P2
2022/08/26 00:02:06;;;;;;;10.80;8.53;;;28.60;53.20;;;;;;5120292;28;20989;-83
2022/08/26 00:04:35;;;;;;;16.57;8.60;;;28.50;53.40;;;;;;5117597;28;20535;-82
2022/08/26 00:07:04;;;;;;;10.67;8.53;;;28.50;53.40;;;;;;5118244;28;20498;-82
2022/08/26 00:09:33;;;;;;;12.60;7.83;;;28.50;53.40;;;;;;5119128;28;20490;-82
2022/08/26 00:12:08;;;;;;;11.47;8.70;;;28.40;53.60;;;;;;5119304;28;20888;-81
2022/08/26 00:14:39;;;;;;;14.63;9.23;;;28.30;53.80;;;;;;5118969;28;20448;-81
2022/08/26 00:17:09;;;;;;;13.27;8.83;;;28.40;53.90;;;;;;5118051;28;20467;-81
2022/08/26 00:19:37;;;;;;;13.80;8.30;;;28.30;54.00;;;;;;5119214;28;20424;-81
2022/08/26 00:22:05;;;;;;;21.30;9.13;;;28.30;54.10;;;;;;5113461;28;20947;-82
2022/08/26 00:24:33;;;;;;;13.10;8.77;;;28.30;54.00;;;;;;5115369;28;20458;-81
2022/08/26 00:27:01;;;;;;;14.33;8.60;;;28.20;54.00;;;;;;5111819;28;20444;-81
2022/08/26 00:29:30;;;;;;;8.63;7.83;;;28.20;54.40;;;;;;5115395;28;20494;-83
2022/08/26 00:32:02;;;;;;;15.50;8.80;;;28.10;54.50;;;;;;5108731;28;20440;-82
2022/08/26 00:34:33;;;;;;;12.93;8.07;;;28.10;54.30;;;;;;5110652;28;20525;-82
2022/08/26 00:37:01;;;;;;;11.67;9.23;;;28.10;54.40;;;;;;5113302;28;20482;-82
2022/08/26 00:39:30;;;;;;;15.23;8.40;;;28.10;54.70;;;;;;5112560;28;20425;-82
2022/08/26 00:41:59;;;;;;;14.00;8.90;;;28.00;54.80;;;;;;5115461;28;20440;-82
2022/08/26 00:44:27;;;;;;;14.60;8.80;;;28.00;54.50;;;;;;5115073;28;20442;-82
2022/08/26 00:46:57;;;;;;;10.63;8.53;;;27.90;54.80;;;;;;5115653;28;20506;-82
2022/08/26 00:49:29;;;;;;;14.67;8.80;;;27.90;55.00;;;;;;5115706;28;20436;-82
2022/08/26 00:51:58;;;;;;;12.80;9.20;;;27.90;55.00;;;;;;5107313;28;20535;-82
2022/08/26 00:54:27;;;;;;;14.53;9.70;;;27.90;55.00;;;;;;5113802;28;20496;-82
2022/08/26 00:56:57;;;;;;;17.03;8.63;;;27.80;55.20;;;;;;5116436;28;20527;-82
2022/08/26 00:59:26;;;;;;;16.63;8.90;;;27.80;54.90;;;;;;5116402;28;20440;-82
2022/08/26 01:01:54;;;;;;;12.77;9.40;;;27.70;55.30;;;;;;5115958;28;20463;-81
2022/08/26 01:04:23;;;;;;;17.57;9.20;;;27.70;55.40;;;;;;5116023;28;20529;-82
2022/08/26 01:06:53;;;;;;;24.47;10.17;;;27.70;55.50;;;;;;5113640;28;20502;-82
2022/08/26 01:09:23;;;;;;;14.53;9.20;;;27.70;55.60;;;;;;5104075;28;20493;-82
2022/08/26 01:11:52;;;;;;;12.60;9.27;;;27.70;55.70;;;;;;5115608;28;20470;-82
2022/08/26 01:14:21;;;;;;;17.73;9.97;;;27.60;56.10;;;;;;5116279;28;20521;-82
2022/08/26 01:16:49;;;;;;;13.87;9.60;;;27.60;55.70;;;;;;5115740;28;20550;-82
2022/08/26 01:19:20;;;;;;;13.90;9.80;;;27.60;56.10;;;;;;5115714;28;20480;-82
2022/08/26 01:21:49;;;;;;;15.43;9.70;;;27.60;55.90;;;;;;5116210;28;20780;-82
2022/08/26 01:24:19;;;;;;;12.90;9.50;;;27.70;55.90;;;;;;5112858;28;20533;-82
2022/08/26 01:26:47;;;;;;;18.27;9.53;;;27.60;56.10;;;;;;5107792;28;20460;-81
2022/08/26 01:29:17;;;;;;;16.47;10.20;;;27.60;56.30;;;;;;5115763;28;20418;-81
2022/08/26 01:31:48;;;;;;;17.53;9.40;;;27.50;56.30;;;;;;5115838;28;20515;-81
2022/08/26 01:34:19;;;;;;;14.33;10.07;;;27.50;57.00;;;;;;5115823;28;20466;-81
2022/08/26 01:36:48;;;;;;;22.93;10.37;;;27.50;56.50;;;;;;5116107;28;20438;-82
2022/08/26 01:39:20;;;;;;;26.53;10.57;;;27.50;56.50;;;;;;5116178;28;20414;-81
2022/08/26 01:41:48;;;;;;;18.07;10.37;;;27.50;56.60;;;;;;5103043;28;20532;-81
2022/08/26 01:44:23;;;;;;;13.87;10.07;;;27.50;56.50;;;;;;5111691;28;20468;-81
2022/08/26 01:46:51;;;;;;;15.67;9.63;;;27.50;56.50;;;;;;5116333;28;20506;-81
2022/08/26 01:49:19;;;;;;;14.63;10.13;;;27.50;56.50;;;;;;5116292;28;20474;-81
2022/08/26 01:51:47;;;;;;;13.83;9.70;;;27.60;56.50;;;;;;5119449;28;20470;-81
2022/08/26 01:54:16;;;;;;;15.97;10.37;;;27.60;56.60;;;;;;5119790;27;20463;-81
2022/08/26 01:56:49;;;;;;;17.67;10.30;;;27.60;56.50;;;;;;5119757;28;20440;-81
2022/08/26 01:59:17;;;;;;;13.37;10.07;;;27.50;56.70;;;;;;5118666;28;20538;-81
2022/08/26 02:01:46;;;;;;;15.00;11.00;;;27.50;56.90;;;;;;5106234;28;20463;-81
2022/08/26 02:04:16;;;;;;;23.57;9.90;;;27.50;56.80;;;;;;5119652;28;20554;-82
2022/08/26 02:06:44;;;;;;;13.10;9.90;;;27.50;56.60;;;;;;5119544;28;20505;-82
2022/08/26 02:09:12;;;;;;;18.73;10.40;;;27.50;56.70;;;;;;5119972;28;20539;-82
2022/08/26 02:11:41;;;;;;;13.03;9.70;;;27.50;57.10;;;;;;5119878;28;20435;-82
2022/08/26 02:14:12;;;;;;;12.80;10.07;;;27.50;57.10;;;;;;5119489;28;20518;-82
2022/08/26 02:16:41;;;;;;;15.90;10.67;;;27.50;56.90;;;;;;5113611;28;20475;-81
2022/08/26 02:19:12;;;;;;;16.97;9.97;;;27.50;56.80;;;;;;5119515;28;20534;-82
2022/08/26 02:21:44;;;;;;;18.13;10.30;;;27.50;57.00;;;;;;5119776;28;20524;-81
2022/08/26 02:24:19;;;;;;;22.90;10.33;;;27.50;57.00;;;;;;5119543;28;20472;-82
2022/08/26 02:26:47;;;;;;;14.87;11.17;;;27.40;57.20;;;;;;5119004;28;20489;-81
2022/08/26 02:29:22;;;;;;;17.70;10.83;;;27.40;57.30;;;;;;5125179;28;20390;-81
2022/08/26 02:31:50;;;;;;;17.60;10.20;;;27.40;57.20;;;;;;5115894;28;20473;-82
2022/08/26 02:34:20;;;;;;;26.90;10.90;;;27.30;57.60;;;;;;5114613;28;20456;-81
2022/08/26 02:36:48;;;;;;;17.83;11.60;;;27.30;57.60;;;;;;5116891;28;20460;-82
2022/08/26 02:39:17;;;;;;;17.87;10.93;;;27.30;58.30;;;;;;5120063;28;20410;-81
2022/08/26 02:41:49;;;;;;;19.40;10.60;;;27.30;57.70;;;;;;5119760;28;20417;-81
2022/08/26 02:44:18;;;;;;;16.80;11.30;;;27.30;57.80;;;;;;5118575;28;20450;-81
2022/08/26 02:46:46;;;;;;;16.77;11.17;;;27.20;57.80;;;;;;5118830;28;20463;-81
2022/08/26 02:49:15;;;;;;;18.07;11.53;;;27.20;58.20;;;;;;5117738;28;20444;-81
2022/08/26 02:51:44;;;;;;;19.77;11.33;;;27.20;58.40;;;;;;5110698;28;20856;-81
2022/08/26 02:54:12;;;;;;;22.13;11.20;;;27.20;58.30;;;;;;5118760;28;20462;-81
2022/08/26 02:56:40;;;;;;;20.07;10.90;;;27.20;58.20;;;;;;5119296;28;20429;-81
2022/08/26 02:59:11;;;;;;;22.20;11.90;;;27.20;58.20;;;;;;5118849;28;20418;-82
2022/08/26 03:01:40;;;;;;;18.80;11.50;;;27.20;58.30;;;;;;5119823;28;20467;-81
2022/08/26 03:04:09;;;;;;;16.50;11.80;;;27.20;58.30;;;;;;5129971;27;20562;-81
2022/08/26 03:06:38;;;;;;;21.83;12.17;;;27.20;58.40;;;;;;5125595;28;20433;-81
2022/08/26 03:09:08;;;;;;;21.77;11.97;;;27.10;58.80;;;;;;5118509;28;20407;-81
2022/08/26 03:11:36;;;;;;;21.10;12.80;;;27.00;58.90;;;;;;5118636;28;20464;-82
2022/08/26 03:14:04;;;;;;;18.33;12.17;;;27.00;59.10;;;;;;5118542;28;20523;-81
2022/08/26 03:16:33;;;;;;;25.90;14.83;;;27.00;58.80;;;;;;5118017;28;20453;-81
2022/08/26 03:19:02;;;;;;;32.17;22.33;;;27.00;58.80;;;;;;5118998;28;20494;-81
2022/08/26 03:21:30;;;;;;;31.67;21.43;;;27.00;59.30;;;;;;5113630;28;20434;-81
2022/08/26 03:23:58;;;;;;;18.67;12.67;;;27.00;59.00;;;;;;5117565;28;20551;-81
2022/08/26 03:26:27;;;;;;;18.87;11.80;;;27.00;59.20;;;;;;5117805;28;20946;-81
2022/08/26 03:31:44;;;;;;;20.90;11.87;;;26.70;59.70;;;;;;5117470;28;20434;-82
2022/08/26 03:34:16;;;;;;;23.03;12.50;;;26.30;61.20;;;;;;5117726;28;20519;-81
2022/08/26 03:36:44;;;;;;;19.63;12.70;;;26.30;61.20;;;;;;5117801;28;20440;-81
2022/08/26 03:39:12;;;;;;;21.27;12.60;;;26.40;61.30;;;;;;5116957;28;20443;-81
2022/08/26 03:41:40;;;;;;;25.33;12.90;;;26.00;62.60;;;;;;5117751;28;20503;-81
2022/08/26 03:44:08;;;;;;;18.47;12.73;;;26.20;62.40;;;;;;5117840;28;20456;-81
2022/08/26 03:46:37;;;;;;;19.03;12.37;;;26.10;62.10;;;;;;5118406;28;20471;-81
2022/08/26 03:49:05;;;;;;;15.57;12.43;;;25.90;63.00;;;;;;5118256;28;20448;-81
2022/08/26 03:51:35;;;;;;;19.50;12.93;;;26.00;62.80;;;;;;5118052;28;20577;-81
2022/08/26 03:54:06;;;;;;;26.13;13.40;;;26.20;62.40;;;;;;5116030;28;20475;-81
2022/08/26 03:56:35;;;;;;;16.87;14.40;;;26.20;61.80;;;;;;5116982;28;20438;-81
2022/08/26 03:59:04;;;;;;;16.93;11.70;;;26.30;62.00;;;;;;5117790;28;20458;-81
2022/08/26 04:01:34;;;;;;;17.93;12.23;;;26.10;61.90;;;;;;5120771;28;20426;-81
2022/08/26 04:04:03;;;;;;;20.23;13.10;;;25.60;64.40;;;;;;5119063;28;20443;-81
2022/08/26 04:06:35;;;;;;;22.57;13.30;;;25.80;64.00;;;;;;5117825;28;20447;-81
2022/08/26 04:09:05;;;;;;;19.37;12.63;;;26.00;63.80;;;;;;5117731;28;20531;-81
2022/08/26 04:11:34;;;;;;;24.73;13.03;;;25.70;63.40;;;;;;5117238;28;20498;-81
2022/08/26 04:14:07;;;;;;;23.27;14.60;;;25.40;66.40;;;;;;5116331;28;20435;-81
2022/08/26 04:16:35;;;;;;;21.20;14.27;;;25.80;64.40;;;;;;5117906;28;20456;-81
2022/08/26 04:19:03;;;;;;;19.70;13.27;;;25.40;66.10;;;;;;5117503;28;20433;-82
2022/08/26 04:21:32;;;;;;;20.80;12.70;;;25.60;65.20;;;;;;5117344;28;20447;-81
2022/08/26 04:24:01;;;;;;;19.40;13.40;;;25.50;65.40;;;;;;5117252;28;20515;-82
2022/08/26 04:26:35;;;;;;;19.90;13.70;;;25.60;65.00;;;;;;5112457;28;20475;-81
2022/08/26 04:29:07;;;;;;;27.23;13.80;;;25.70;64.70;;;;;;5117395;27;20439;-82
2022/08/26 04:31:35;;;;;;;20.33;13.60;;;25.30;66.10;;;;;;5117053;28;20444;-82
2022/08/26 04:34:04;;;;;;;21.17;12.90;;;25.40;66.90;;;;;;5116719;28;20457;-82
2022/08/26 04:36:32;;;;;;;19.20;13.33;;;25.60;65.70;;;;;;5115427;28;20515;-82
2022/08/26 04:39:02;;;;;;;20.33;13.00;;;25.60;65.40;;;;;;5116328;28;20439;-82
2022/08/26 04:41:30;;;;;;;20.30;14.03;;;25.60;65.30;;;;;;5114070;28;20500;-82
2022/08/26 04:43:58;;;;;;;19.80;13.13;;;25.60;65.40;;;;;;5108234;28;20438;-82
2022/08/26 04:46:26;;;;;;;18.47;13.13;;;25.70;65.00;;;;;;5114371;28;20547;-81
2022/08/26 04:48:55;;;;;;;20.53;13.13;;;25.80;65.00;;;;;;5114551;28;20525;-82
2022/08/26 04:51:26;;;;;;;19.87;14.00;;;25.60;65.10;;;;;;5114663;28;20483;-82
2022/08/26 04:53:55;;;;;;;17.77;13.60;;;25.50;66.00;;;;;;5114189;28;20468;-82
2022/08/26 04:56:26;;;;;;;24.93;13.63;;;25.70;65.00;;;;;;5114744;27;20464;-82
2022/08/26 04:58:55;;;;;;;23.97;14.50;;;25.70;65.10;;;;;;5112931;28;20431;-82
2022/08/26 05:01:23;;;;;;;26.27;14.40;;;25.70;65.00;;;;;;5114828;28;20444;-82
2022/08/26 05:03:51;;;;;;;21.10;14.10;;;25.60;65.60;;;;;;5114548;28;20422;-82
2022/08/26 05:06:19;;;;;;;18.63;13.93;;;25.60;66.20;;;;;;5115545;28;20442;-82
2022/08/26 05:08:48;;;;;;;17.10;14.13;;;25.70;65.70;;;;;;5115167;28;20949;-82
2022/08/26 05:11:17;;;;;;;25.07;13.57;;;25.60;65.60;;;;;;5114491;28;20474;-82
2022/08/26 05:13:46;;;;;;;26.03;14.40;;;25.30;67.20;;;;;;5115854;28;20418;-82
2022/08/26 05:16:15;;;;;;;21.50;14.37;;;25.50;67.00;;;;;;5108437;28;20469;-82
2022/08/26 05:18:44;;;;;;;29.53;14.77;;;25.70;66.60;;;;;;5107717;28;20727;-81
2022/08/26 05:21:17;;;;;;;26.13;14.17;;;25.80;65.70;;;;;;5116392;28;20425;-83
2022/08/26 05:23:45;;;;;;;24.43;14.50;;;25.90;65.30;;;;;;5117688;28;20439;-81
2022/08/26 05:26:16;;;;;;;20.87;14.40;;;25.90;65.20;;;;;;5123062;27;20471;-82
2022/08/26 05:28:51;;;;;;;26.43;15.30;;;26.00;65.30;;;;;;5122989;27;20439;-82
2022/08/26 05:31:23;;;;;;;22.37;14.43;;;26.00;65.20;;;;;;5122245;28;20455;-81
2022/08/26 05:33:52;;;;;;;24.37;15.00;;;25.90;65.70;;;;;;5122163;28;20451;-81
2022/08/26 05:36:21;;;;;;;23.33;15.13;;;25.60;66.70;;;;;;5121707;28;20414;-81
2022/08/26 05:38:49;;;;;;;25.53;14.83;;;25.70;66.90;;;;;;5122485;28;20531;-82
2022/08/26 05:41:18;;;;;;;22.17;14.80;;;25.90;66.50;;;;;;5121919;28;20501;-82
2022/08/26 05:43:46;;;;;;;29.70;15.83;;;26.00;65.80;;;;;;5121386;28;20406;-82
2022/08/26 05:46:17;;;;;;;31.43;20.63;;;26.10;66.00;;;;;;5121688;28;20503;-82
2022/08/26 05:48:45;;;;;;;45.40;27.80;;;26.20;65.80;;;;;;5117007;28;20435;-81
2022/08/26 05:51:14;;;;;;;29.37;22.77;;;26.30;65.30;;;;;;5122036;27;20406;-82
2022/08/26 05:53:43;;;;;;;34.73;22.07;;;26.40;65.20;;;;;;5121581;28;20410;-82
2022/08/26 05:56:23;;;;;;;31.40;17.90;;;26.40;65.20;;;;;;5122788;28;20497;-82
2022/08/26 05:58:51;;;;;;;24.53;15.97;;;26.50;64.70;;;;;;5122660;28;20418;-82
2022/08/26 06:01:22;;;;;;;21.43;14.70;;;26.50;64.80;;;;;;5124683;27;21004;-83
2022/08/26 06:03:51;;;;;;;21.23;15.30;;;26.30;65.80;;;;;;5122941;28;20958;-83
2022/08/26 06:06:21;;;;;;;35.10;24.93;;;26.40;65.90;;;;;;5119448;28;20549;-83
2022/08/26 06:08:56;;;;;;;27.77;17.83;;;26.50;66.00;;;;;;5122977;28;21012;-84
2022/08/26 06:11:25;;;;;;;19.30;15.37;;;26.70;65.50;;;;;;5123728;28;20500;-83
2022/08/26 06:13:53;;;;;;;23.97;15.07;;;26.80;64.80;;;;;;5123632;28;20443;-84
2022/08/26 06:16:23;;;;;;;39.17;24.70;;;26.80;64.80;;;;;;5124225;28;20474;-83
2022/08/26 06:18:52;;;;;;;30.33;20.60;;;26.90;64.80;;;;;;5124368;27;20446;-84
2022/08/26 06:21:22;;;;;;;31.57;15.60;;;26.90;64.60;;;;;;5122437;27;20451;-83
2022/08/26 06:26:36;;;;;;;25.53;15.47;;;26.80;65.10;;;;;;5123427;27;20541;-83
2022/08/26 06:29:05;;;;;;;26.87;16.80;;;26.60;65.60;;;;;;5123869;28;20534;-83
2022/08/26 06:31:35;;;;;;;37.00;17.80;;;26.50;66.60;;;;;;5123014;28;20485;-83
2022/08/26 06:34:06;;;;;;;28.17;16.80;;;26.40;65.90;;;;;;5122487;28;20536;-83
2022/08/26 06:36:38;;;;;;;27.87;17.77;;;26.40;66.90;;;;;;5119723;28;20420;-83
2022/08/26 06:39:08;;;;;;;25.57;15.77;;;26.70;66.20;;;;;;5112741;28;20534;-83
2022/08/26 06:41:37;;;;;;;25.70;15.70;;;26.90;65.40;;;;;;5119216;28;20449;-83
2022/08/26 06:44:10;;;;;;;24.20;15.50;;;27.10;64.60;;;;;;5118959;28;20445;-83
2022/08/26 06:46:39;;;;;;;27.17;16.27;;;26.90;64.40;;;;;;5118900;28;20534;-83
2022/08/26 06:49:07;;;;;;;21.00;14.70;;;26.00;67.90;;;;;;5119863;28;20419;-83
2022/08/26 06:51:38;;;;;;;28.17;14.43;;;25.60;69.10;;;;;;5118497;28;20422;-82
2022/08/26 06:54:06;;;;;;;25.40;14.20;;;25.30;70.70;;;;;;5118477;28;20478;-83
2022/08/26 06:56:36;;;;;;;22.47;15.40;;;25.30;72.80;;;;;;5119746;28;20530;-82
2022/08/26 06:59:04;;;;;;;22.63;14.80;;;25.90;70.60;;;;;;5124845;28;20446;-83
2022/08/26 07:01:35;;;;;;;21.83;14.47;;;26.10;68.70;;;;;;5117353;28;20450;-83
2022/08/26 07:04:07;;;;;;;22.20;15.27;;;26.20;68.40;;;;;;5117194;28;20505;-83
2022/08/26 07:06:39;;;;;;;28.23;14.80;;;26.40;67.70;;;;;;5118433;28;20885;-83
2022/08/26 07:09:08;;;;;;;23.07;13.60;;;26.70;67.50;;;;;;5118614;28;20419;-82
2022/08/26 07:11:37;;;;;;;24.23;17.60;;;27.00;66.50;;;;;;5110007;28;20423;-83
2022/08/26 07:14:05;;;;;;;28.03;15.97;;;27.20;64.80;;;;;;5118052;28;20513;-81
2022/08/26 07:16:34;;;;;;;26.70;15.50;;;27.10;64.50;;;;;;5119078;28;20418;-82
2022/08/26 07:19:02;;;;;;;26.33;15.83;;;27.00;64.60;;;;;;5129526;28;20449;-82
2022/08/26 07:21:40;;;;;;;30.90;16.43;;;26.30;67.00;;;;;;5126671;28;20849;-82
2022/08/26 07:24:08;;;;;;;32.70;16.90;;;26.40;67.70;;;;;;5129038;28;20493;-82
2022/08/26 07:26:38;;;;;;;23.43;15.90;;;26.30;68.80;;;;;;5132262;28;20499;-82
2022/08/26 07:29:10;;;;;;;33.93;17.00;;;26.50;67.60;;;;;;5126893;28;20468;-82
2022/08/26 07:31:38;;;;;;;30.17;20.17;;;26.70;66.80;;;;;;5132152;28;20455;-82
2022/08/26 07:34:10;;;;;;;25.90;16.90;;;26.80;65.70;;;;;;5132039;28;20461;-82
2022/08/26 07:36:39;;;;;;;29.67;17.33;;;26.90;65.30;;;;;;5132579;28;20414;-82
2022/08/26 07:39:07;;;;;;;25.60;16.00;;;27.20;65.70;;;;;;5132826;28;20437;-82
2022/08/26 07:41:36;;;;;;;25.10;17.10;;;27.30;64.50;;;;;;5133533;28;20444;-82
2022/08/26 07:44:05;;;;;;;35.83;17.43;;;27.00;65.80;;;;;;5133601;28;20445;-82
2022/08/26 07:46:35;;;;;;;31.87;15.03;;;27.30;65.70;;;;;;5127603;28;20487;-83
2022/08/26 07:49:03;;;;;;;19.40;14.40;;;27.50;65.70;;;;;;5130986;28;20477;-82
2022/08/26 07:51:32;;;;;;;19.30;13.80;;;27.90;63.80;;;;;;5131671;28;20444;-82
2022/08/26 07:54:01;;;;;;;27.23;15.33;;;28.30;62.60;;;;;;5132759;28;20435;-82
2022/08/26 07:56:29;;;;;;;25.80;14.47;;;28.50;61.40;;;;;;5133063;28;20414;-82
2022/08/26 07:58:58;;;;;;;23.93;15.43;;;28.60;61.50;;;;;;5133120;28;20464;-82
2022/08/26 08:01:27;;;;;;;25.47;13.20;;;28.70;59.60;;;;;;5132282;28;20468;-82
2022/08/26 08:03:57;;;;;;;25.90;15.73;;;28.90;60.70;;;;;;5131348;28;20455;-82
2022/08/26 08:06:26;;;;;;;21.93;14.03;;;29.10;59.20;;;;;;5131621;28;20455;-82
2022/08/26 08:08:55;;;;;;;23.03;15.60;;;29.30;58.40;;;;;;5131491;28;20461;-82
2022/08/26 08:11:26;;;;;;;22.00;14.60;;;29.10;58.20;;;;;;5131988;28;20447;-81
2022/08/26 08:13:54;;;;;;;22.97;15.23;;;28.90;60.50;;;;;;5125282;28;20439;-82
2022/08/26 08:16:24;;;;;;;26.63;16.47;;;29.10;59.20;;;;;;5127937;28;20436;-81
2022/08/26 08:18:58;;;;;;;24.07;14.93;;;29.20;57.70;;;;;;5132546;28;20447;-81
2022/08/26 08:21:27;;;;;;;18.80;13.50;;;29.10;58.50;;;;;;5134210;28;20462;-81
2022/08/26 08:23:56;;;;;;;17.83;11.70;;;29.30;58.80;;;;;;5133001;28;20459;-81
2022/08/26 08:26:25;;;;;;;18.37;13.27;;;29.60;57.60;;;;;;5133883;28;20443;-81
2022/08/26 08:28:54;;;;;;;16.23;11.23;;;29.70;56.60;;;;;;5123635;28;20456;-81
2022/08/26 08:31:24;;;;;;;23.47;15.50;;;29.60;58.00;;;;;;5125392;28;20478;-82
2022/08/26 08:34:12;;;;;;;15.30;11.87;;;29.90;57.00;;;;;;5132560;28;20547;-81
2022/08/26 08:36:40;;;;;;;17.63;11.33;;;30.10;56.10;;;;;;5124458;28;20448;-80
2022/08/26 08:39:09;;;;;;;24.00;13.03;;;30.20;56.30;;;;;;5130577;28;20462;-81
2022/08/26 08:41:45;;;;;;;25.70;15.03;;;30.50;55.40;;;;;;5130761;28;20447;-80
2022/08/26 08:44:17;;;;;;;22.13;13.40;;;30.50;54.40;;;;;;5129079;28;20463;-81
2022/08/26 08:46:45;;;;;;;25.10;13.97;;;30.60;55.00;;;;;;5131496;28;20440;-82
2022/08/26 08:49:13;;;;;;;21.00;14.07;;;30.50;55.20;;;;;;5130424;28;20439;-82
2022/08/26 08:51:44;;;;;;;22.03;13.50;;;30.50;55.00;;;;;;5131555;28;20459;-81
2022/08/26 08:54:13;;;;;;;17.33;13.10;;;30.40;55.60;;;;;;5128590;28;20472;-81
2022/08/26 08:56:45;;;;;;;22.27;13.00;;;30.40;56.50;;;;;;5122067;28;20428;-85
2022/08/26 08:59:15;;;;;;;18.97;13.83;;;30.90;54.60;;;;;;5118333;28;20444;-82
2022/08/26 09:01:55;;;;;;;24.17;16.10;;;31.10;54.20;;;;;;5122911;28;20440;-82
2022/08/26 09:04:43;;;;;;;13.43;10.43;;;31.20;54.00;;;;;;5122002;28;20486;-83
2022/08/26 09:07:13;;;;;;;15.00;10.73;;;31.50;52.90;;;;;;5114667;28;20463;-83
2022/08/26 09:09:47;;;;;;;16.47;11.37;;;31.80;52.10;;;;;;5128712;28;20443;-82
2022/08/26 09:12:19;;;;;;;14.07;11.00;;;31.90;51.50;;;;;;5129016;28;20459;-83
2022/08/26 09:14:58;;;;;;;16.90;12.40;;;31.90;50.90;;;;;;5123276;28;20485;-82
2022/08/26 09:17:31;;;;;;;21.53;11.13;;;31.90;51.50;;;;;;5127925;28;20436;-84
2022/08/26 09:20:05;;;;;;;19.80;13.20;;;31.80;52.10;;;;;;5103137;28;20437;-85
2022/08/26 09:22:39;;;;;;;15.37;10.87;;;31.40;52.40;;;;;;5120493;28;20485;-84
2022/08/26 09:25:12;;;;;;;18.30;13.03;;;31.10;54.20;;;;;;5125315;28;20475;-84
2022/08/26 09:27:43;;;;;;;25.83;13.23;;;31.40;52.40;;;;;;5124868;28;20451;-84
2022/08/26 09:30:14;;;;;;;23.33;12.07;;;31.10;53.90;;;;;;5125499;28;20451;-84
2022/08/26 09:32:45;;;;;;;13.67;12.00;;;31.40;53.40;;;;;;5125432;28;20444;-84
2022/08/26 09:35:25;;;;;;;20.13;13.63;;;31.50;53.60;;;;;;5127227;28;20470;-84
2022/08/26 09:38:00;;;;;;;19.30;10.97;;;31.30;54.90;;;;;;5123655;28;20448;-85
2022/08/26 09:40:33;;;;;;;19.70;10.73;;;31.30;56.10;;;;;;5120339;28;20474;-85
2022/08/26 09:43:33;;;;;;;25.00;13.60;;;31.60;53.80;;;;;;5109318;28;20540;-85
2022/08/26 09:46:18;;;;;;;24.97;15.10;;;32.00;54.60;;;;;;5100811;28;20440;-85
2022/08/26 09:48:46;;;;;;;16.20;13.23;;;32.10;54.40;;;;;;5112816;28;20554;-86
2022/08/26 09:51:32;;;;;;;19.60;14.80;;;31.70;55.40;;;;;;5116798;28;20440;-86
2022/08/26 09:54:01;;;;;;;17.13;11.80;;;31.10;57.40;;;;;;5113742;28;20519;-86
2022/08/26 09:56:31;;;;;;;16.53;10.50;;;31.50;58.10;;;;;;5114855;28;20501;-86
2022/08/26 09:59:01;;;;;;;13.43;11.63;;;32.00;56.00;;;;;;5115254;28;20435;-86
2022/08/26 10:01:30;;;;;;;23.43;16.10;;;32.30;56.00;;;;;;5120955;28;20440;-83
2022/08/26 10:04:07;;;;;;;18.63;13.93;;;31.90;56.00;;;;;;5103226;28;20444;-83
2022/08/26 10:06:38;;;;;;;25.33;15.30;;;31.80;55.50;;;;;;5107860;28;20443;-83
2022/08/26 10:09:06;;;;;;;21.70;14.77;;;31.60;57.10;;;;;;5118246;28;20548;-83
2022/08/26 10:11:40;;;;;;;23.53;14.97;;;31.80;57.90;;;;;;5126436;28;20453;-83
2022/08/26 10:14:12;;;;;;;23.80;15.33;;;32.20;55.70;;;;;;5122607;28;20467;-82
2022/08/26 10:16:45;;;;;;;18.13;13.10;;;32.50;54.50;;;;;;5122244;28;20479;-81
2022/08/26 10:19:15;;;;;;;20.63;15.70;;;32.20;56.30;;;;;;5121372;28;20474;-82
2022/08/26 10:21:48;;;;;;;21.20;14.83;;;32.60;54.60;;;;;;5120217;28;20451;-83
2022/08/26 10:24:22;;;;;;;26.00;15.93;;;32.50;54.80;;;;;;5121110;28;20467;-83
2022/08/26 10:26:56;;;;;;;18.53;14.40;;;32.30;54.60;;;;;;5121995;28;20511;-83
2022/08/26 10:29:29;;;;;;;15.20;13.60;;;32.10;56.40;;;;;;5120950;28;20466;-83
2022/08/26 10:31:59;;;;;;;20.40;16.20;;;32.80;53.90;;;;;;5121730;28;20439;-82
2022/08/26 10:34:31;;;;;;;19.40;13.23;;;32.60;53.70;;;;;;5121181;28;20489;-82
2022/08/26 10:37:01;;;;;;;16.07;13.20;;;32.50;55.00;;;;;;5119824;28;20443;-82
2022/08/26 10:39:47;;;;;;;19.40;15.63;;;32.90;53.20;;;;;;5112368;28;20515;-82
2022/08/26 10:42:19;;;;;;;24.57;15.43;;;33.40;52.20;;;;;;5121670;28;20519;-82
2022/08/26 10:44:52;;;;;;;14.97;11.57;;;32.80;52.80;;;;;;5111927;27;20471;-82
2022/08/26 10:47:28;;;;;;;24.60;16.17;;;32.90;54.20;;;;;;5101272;28;20493;-82
2022/08/26 10:49:58;;;;;;;16.63;13.93;;;33.20;52.30;;;;;;5103896;28;20525;-82
2022/08/26 10:52:35;;;;;;;20.73;15.50;;;33.60;52.50;;;;;;5120039;28;20474;-82
2022/08/26 10:55:06;;;;;;;19.10;11.50;;;33.80;51.30;;;;;;5119667;28;20467;-81
2022/08/26 10:57:39;;;;;;;15.50;10.27;;;34.20;51.00;;;;;;5121335;28;20440;-81
2022/08/26 11:02:57;;;;;;;15.40;10.80;;;33.80;50.60;;;;;;5122273;28;20443;-81
2022/08/26 11:05:25;;;;;;;17.10;14.80;;;33.90;51.00;;;;;;5121396;28;20463;-81
2022/08/26 11:07:57;;;;;;;24.53;14.80;;;34.20;49.80;;;;;;5121289;28;20451;-82
2022/08/26 11:11:02;;;;;;;18.53;12.53;;;33.90;51.00;;;;;;5114853;28;20449;-82
2022/08/26 11:14:03;;;;;;;17.07;13.00;;;34.00;50.10;;;;;;5120212;28;20523;-82
2022/08/26 11:16:35;;;;;;;19.00;15.37;;;34.10;50.00;;;;;;5058500;28;20506;-82
2022/08/26 11:19:11;;;;;;;18.23;10.30;;;34.30;49.80;;;;;;5113742;28;20467;-82
2022/08/26 11:21:46;;;;;;;24.80;14.27;;;34.10;50.20;;;;;;5121318;28;20477;-82
2022/08/26 11:24:38;;;;;;;17.20;10.07;;;34.40;49.70;;;;;;5122229;28;20463;-82
2022/08/26 11:27:11;;;;;;;21.53;14.47;;;35.00;48.60;;;;;;5117741;28;20452;-81
2022/08/26 11:29:56;;;;;;;20.90;14.40;;;35.20;48.00;;;;;;5121633;28;20471;-81
2022/08/26 11:32:26;;;;;;;26.77;13.57;;;35.00;48.60;;;;;;5121772;28;20482;-81
2022/08/26 11:34:56;;;;;;;15.20;10.40;;;35.00;48.30;;;;;;5122497;28;20487;-82
2022/08/26 11:37:29;;;;;;;24.30;12.50;;;35.30;47.60;;;;;;5122063;28;20469;-82
2022/08/26 11:39:59;;;;;;;11.90;9.43;;;35.80;48.00;;;;;;5122412;28;20436;-82
2022/08/26 11:42:33;;;;;;;22.93;12.70;;;36.30;45.60;;;;;;5120595;28;20451;-82
2022/08/26 11:45:01;;;;;;;14.50;9.90;;;37.30;44.70;;;;;;5122616;28;20501;-82
2022/08/26 11:47:34;;;;;;;18.07;10.80;;;38.10;42.70;;;;;;5123863;28;20448;-82
2022/08/26 11:50:13;;;;;;;16.57;11.00;;;39.10;41.60;;;;;;5123528;28;20502;-82
2022/08/26 11:52:41;;;;;;;12.57;9.10;;;39.10;42.40;;;;;;5122467;28;20448;-82
2022/08/26 11:55:10;;;;;;;16.00;10.37;;;40.00;40.10;;;;;;5122625;28;20535;-83
2022/08/26 11:57:45;;;;;;;9.30;8.50;;;40.70;38.50;;;;;;5124102;28;20450;-83
2022/08/26 12:00:18;;;;;;;12.60;8.43;;;40.70;36.50;;;;;;5123754;28;20522;-83
2022/08/26 12:02:51;;;;;;;15.53;8.40;;;40.60;37.90;;;;;;5117412;28;20447;-83
2022/08/26 12:05:23;;;;;;;13.70;7.30;;;40.80;37.50;;;;;;5124960;28;20469;-84
2022/08/26 12:07:54;;;;;;;13.33;8.47;;;41.00;36.40;;;;;;5124758;28;20484;-83
2022/08/26 12:10:28;;;;;;;15.23;8.97;;;40.90;35.10;;;;;;5121130;28;20554;-82
2022/08/26 12:12:57;;;;;;;11.60;9.13;;;39.50;38.00;;;;;;5122544;28;20489;-82
2022/08/26 12:15:27;;;;;;;16.40;9.30;;;38.40;39.50;;;;;;5121674;28;20556;-82
2022/08/26 12:17:58;;;;;;;9.40;8.20;;;38.70;41.00;;;;;;5123820;27;20436;-83
2022/08/26 12:20:44;;;;;;;18.70;9.80;;;39.00;39.30;;;;;;5112687;28;20455;-82
2022/08/26 12:23:26;;;;;;;15.90;10.80;;;38.10;40.20;;;;;;5121117;28;20440;-82
2022/08/26 12:26:03;;;;;;;27.93;15.00;;;37.30;42.10;;;;;;5120912;28;20459;-82
2022/08/26 12:28:31;;;;;;;23.67;13.03;;;36.90;42.20;;;;;;5122820;28;20440;-82
2022/08/26 12:31:01;;;;;;;22.57;12.27;;;36.10;42.90;;;;;;5120576;28;20451;-83
2022/08/26 12:33:30;;;;;;;21.43;11.37;;;35.30;45.70;;;;;;5129884;28;20454;-82
2022/08/26 12:36:00;;;;;;;18.30;10.57;;;35.50;46.60;;;;;;5130852;28;20459;-82
2022/08/26 12:38:28;;;;;;;17.97;10.70;;;37.10;43.80;;;;;;5126273;28;20444;-82
2022/08/26 12:40:56;;;;;;;14.93;10.00;;;36.50;43.50;;;;;;5120809;28;20486;-83
2022/08/26 12:43:39;;;;;;;14.93;9.27;;;37.20;43.60;;;;;;5119971;28;20439;-83
2022/08/26 12:46:10;;;;;;;16.77;8.70;;;38.10;42.70;;;;;;5119861;28;20531;-83
2022/08/26 12:48:41;;;;;;;18.60;10.63;;;38.00;41.00;;;;;;5119601;28;20436;-82
2022/08/26 12:51:16;;;;;;;17.17;8.97;;;37.60;43.80;;;;;;5120092;28;20498;-82
2022/08/26 12:53:45;;;;;;;19.37;10.70;;;38.50;39.30;;;;;;5120625;28;20445;-82
2022/08/26 12:56:26;;;;;;;14.90;9.53;;;36.90;41.90;;;;;;5119072;28;20452;-82